createdAt,value
2018-12-20T00:01:25.374Z,7.70
2018-12-20T00:03:53.626Z,8.10
2018-12-20T00:06:21.772Z,7.13
2018-12-20T00:08:49.963Z,7.20
2018-12-20T00:11:19.191Z,6.77
2018-12-20T00:13:47.319Z,6.43
2018-12-20T00:16:15.427Z,6.77
2018-12-20T00:18:43.542Z,7.00
2018-12-20T00:21:11.852Z,6.43
2018-12-20T00:23:39.930Z,6.00
2018-12-20T00:26:08.038Z,6.07
2018-12-20T00:28:36.111Z,6.13
2018-12-20T00:31:04.307Z,6.77
2018-12-20T00:33:32.420Z,7.10
2018-12-20T00:36:00.570Z,6.97
2018-12-20T00:38:28.685Z,5.90
2018-12-20T00:40:56.795Z,6.83
2018-12-20T00:43:26.168Z,7.50
2018-12-20T00:45:54.334Z,7.03
2018-12-20T00:48:22.411Z,7.07
2018-12-20T00:50:51.651Z,8.40
2018-12-20T00:53:19.867Z,8.50
2018-12-20T00:55:47.990Z,7.53
2018-12-20T00:58:16.142Z,7.07
2018-12-20T01:00:44.310Z,7.10
2018-12-20T01:03:12.551Z,7.13
2018-12-20T01:05:40.746Z,8.47
2018-12-20T01:08:09.045Z,8.23
2018-12-20T01:10:37.408Z,7.20
2018-12-20T01:13:05.578Z,7.57
2018-12-20T01:15:33.745Z,6.37
2018-12-20T01:18:01.850Z,7.57
2018-12-20T01:20:30.035Z,7.60
2018-12-20T01:22:58.298Z,8.50
2018-12-20T01:25:26.470Z,7.30
2018-12-20T01:27:54.694Z,7.70
2018-12-20T01:30:22.742Z,7.87
2018-12-20T01:32:50.864Z,7.43
2018-12-20T01:35:19.327Z,7.57
2018-12-20T01:37:47.556Z,7.37
2018-12-20T01:40:15.856Z,6.80
2018-12-20T01:42:44.024Z,7.00
2018-12-20T01:45:12.168Z,7.20
2018-12-20T01:47:40.352Z,7.27
2018-12-20T01:50:08.509Z,6.70
2018-12-20T01:52:36.632Z,6.70
2018-12-20T01:55:04.979Z,8.60
2018-12-20T01:57:33.101Z,7.70
2018-12-20T02:00:01.592Z,7.20
2018-12-20T02:02:29.783Z,7.90
2018-12-20T02:04:57.853Z,6.97
2018-12-20T02:07:25.946Z,5.97
2018-12-20T02:09:53.980Z,5.90
2018-12-20T02:12:22.028Z,5.17
2018-12-20T02:14:50.192Z,5.83
2018-12-20T02:17:18.412Z,5.33
2018-12-20T02:19:46.495Z,5.77
2018-12-20T02:22:14.673Z,5.70
2018-12-20T02:24:43.007Z,5.40
2018-12-20T02:27:11.144Z,5.50
2018-12-20T02:29:39.350Z,4.73
2018-12-20T02:32:07.789Z,6.20
2018-12-20T02:34:35.898Z,5.57
2018-12-20T02:37:04.018Z,6.07
2018-12-20T02:39:32.178Z,7.07
2018-12-20T02:42:00.318Z,6.70
2018-12-20T02:44:28.968Z,6.10
2018-12-20T02:46:57.380Z,6.63
2018-12-20T02:49:25.685Z,6.27
2018-12-20T02:51:53.821Z,6.50
2018-12-20T02:54:21.853Z,6.13
2018-12-20T02:56:50.035Z,6.20
2018-12-20T02:59:18.154Z,5.70
2018-12-20T03:01:46.627Z,6.47
2018-12-20T03:04:14.750Z,5.70
2018-12-20T03:06:42.790Z,5.77
2018-12-20T03:09:10.900Z,5.57
2018-12-20T03:11:39.058Z,6.30
2018-12-20T03:14:07.147Z,6.63
2018-12-20T03:16:35.293Z,6.77
2018-12-20T03:19:03.524Z,7.23
2018-12-20T03:21:31.729Z,5.93
2018-12-20T03:23:59.924Z,5.83
2018-12-20T03:26:27.971Z,6.00
2018-12-20T03:28:56.215Z,5.93
2018-12-20T03:31:24.342Z,6.67
2018-12-20T03:33:52.390Z,7.30
2018-12-20T03:36:20.689Z,7.20
2018-12-20T03:38:48.957Z,7.23
2018-12-20T03:41:17.000Z,6.83
2018-12-20T03:43:45.290Z,7.00
2018-12-20T03:46:13.568Z,6.90
2018-12-20T03:48:41.786Z,7.03
2018-12-20T03:51:09.883Z,6.67
2018-12-20T03:56:19.608Z,7.10
2018-12-20T03:58:47.992Z,6.90
2018-12-20T04:01:17.216Z,6.33
2018-12-20T04:03:45.381Z,6.27
2018-12-20T04:06:13.628Z,6.20
2018-12-20T04:08:41.723Z,6.30
2018-12-20T04:11:10.023Z,6.83
2018-12-20T04:13:38.183Z,6.13
2018-12-20T04:16:06.566Z,6.43
2018-12-20T04:18:34.706Z,6.67
2018-12-20T04:21:02.769Z,6.07
2018-12-20T04:23:30.891Z,5.63
2018-12-20T04:25:58.918Z,5.90
2018-12-20T04:28:27.091Z,5.73
2018-12-20T04:30:55.169Z,6.00
2018-12-20T04:33:23.424Z,6.20
2018-12-20T04:35:51.612Z,5.37
2018-12-20T04:38:19.704Z,5.80
2018-12-20T04:40:47.973Z,5.47
2018-12-20T04:43:16.099Z,5.33
2018-12-20T04:45:46.810Z,5.93
2018-12-20T04:48:15.756Z,5.80
2018-12-20T04:50:45.116Z,5.80
2018-12-20T04:53:13.166Z,5.90
2018-12-20T04:55:41.289Z,5.47
2018-12-20T04:58:09.651Z,5.47
2018-12-20T05:00:37.841Z,6.37
2018-12-20T05:03:06.186Z,5.90
2018-12-20T05:05:34.407Z,5.50
2018-12-20T05:08:02.691Z,5.53
2018-12-20T05:10:31.005Z,5.40
2018-12-20T05:12:59.063Z,5.53
2018-12-20T05:15:27.234Z,5.47
2018-12-20T05:17:55.331Z,5.53
2018-12-20T05:20:23.382Z,6.03
2018-12-20T05:22:51.910Z,5.83
2018-12-20T05:25:20.120Z,5.90
2018-12-20T05:27:48.339Z,5.63
2018-12-20T05:30:16.669Z,5.33
2018-12-20T05:35:26.511Z,6.07
2018-12-20T05:37:55.076Z,6.30
2018-12-20T05:40:23.323Z,5.23
2018-12-20T05:42:51.676Z,5.40
2018-12-20T05:45:19.882Z,5.57
2018-12-20T05:47:48.093Z,5.70
2018-12-20T05:52:57.537Z,6.30
2018-12-20T05:55:26.936Z,5.90
2018-12-20T05:57:55.280Z,5.80
2018-12-20T06:00:23.392Z,4.97
2018-12-20T06:02:51.665Z,5.43
2018-12-20T06:05:19.815Z,5.50
2018-12-20T06:07:47.854Z,4.90
2018-12-20T06:10:16.039Z,5.33
2018-12-20T06:12:44.208Z,5.63
2018-12-20T06:15:12.566Z,5.70
2018-12-20T06:17:40.740Z,5.03
2018-12-20T06:20:08.931Z,5.63
2018-12-20T06:22:37.029Z,5.93
2018-12-20T06:25:05.371Z,5.20
2018-12-20T06:27:33.523Z,5.40
2018-12-20T06:30:01.717Z,4.80
2018-12-20T06:32:29.742Z,4.87
2018-12-20T06:34:57.875Z,5.70
2018-12-20T06:37:25.899Z,5.33
2018-12-20T06:39:53.934Z,5.30
2018-12-20T06:42:21.981Z,4.50
2018-12-20T06:44:50.004Z,4.23
2018-12-20T06:47:18.121Z,3.33
2018-12-20T06:49:46.159Z,3.80
2018-12-20T06:52:14.172Z,3.60
2018-12-20T06:54:42.311Z,2.70
2018-12-20T06:57:10.351Z,3.20
2018-12-20T06:59:38.390Z,3.23
2018-12-20T07:02:06.491Z,4.27
2018-12-20T07:04:34.533Z,4.13
2018-12-20T07:07:02.557Z,3.93
2018-12-20T07:09:30.679Z,3.80
2018-12-20T07:11:58.704Z,2.97
2018-12-20T07:14:26.769Z,3.23
2018-12-20T07:16:54.802Z,3.43
2018-12-20T07:19:22.871Z,3.10
2018-12-20T07:21:50.974Z,2.93
2018-12-20T07:24:19.085Z,3.40
2018-12-20T07:26:47.157Z,3.57
2018-12-20T07:29:15.285Z,2.90
2018-12-20T07:31:43.492Z,3.47
2018-12-20T07:34:11.596Z,2.47
2018-12-20T07:36:39.777Z,2.50
2018-12-20T07:39:08.451Z,2.70
2018-12-20T07:41:36.490Z,1.73
2018-12-20T07:44:04.831Z,1.93
2018-12-20T07:46:37.789Z,1.70
2018-12-20T07:49:03.132Z,1.80
2018-12-20T07:51:31.175Z,1.67
2018-12-20T07:53:59.212Z,1.67
2018-12-20T07:56:27.336Z,2.00
2018-12-20T07:58:55.363Z,1.60
2018-12-20T08:01:23.475Z,1.63
2018-12-20T08:03:51.518Z,1.73
2018-12-20T08:06:19.557Z,1.40
2018-12-20T08:08:47.590Z,1.30
2018-12-20T08:11:16.015Z,2.17
2018-12-20T08:13:44.070Z,1.43
2018-12-20T08:16:12.136Z,1.70
2018-12-20T08:18:40.225Z,1.80
2018-12-20T08:21:08.748Z,1.60
2018-12-20T08:23:36.874Z,1.90
2018-12-20T08:26:04.907Z,1.90
2018-12-20T08:28:32.979Z,1.93
2018-12-20T08:31:01.109Z,1.70
2018-12-20T08:33:29.158Z,1.90
2018-12-20T08:35:57.206Z,2.60
2018-12-20T08:38:25.242Z,2.80
2018-12-20T08:40:53.343Z,2.77
2018-12-20T08:43:21.386Z,3.00
2018-12-20T08:45:49.494Z,2.43
2018-12-20T08:48:17.590Z,3.20
2018-12-20T08:50:45.630Z,3.20
2018-12-20T08:53:12.769Z,2.73
2018-12-20T08:55:40.890Z,2.60
2018-12-20T08:58:08.907Z,3.40
2018-12-20T09:00:36.985Z,2.87
2018-12-20T09:03:05.046Z,3.00
2018-12-20T09:05:33.202Z,3.20
2018-12-20T09:08:02.314Z,2.60
2018-12-20T09:10:30.442Z,2.93
2018-12-20T09:12:58.480Z,3.40
2018-12-20T09:15:26.635Z,2.70
2018-12-20T09:17:54.706Z,2.60
2018-12-20T09:20:22.818Z,3.10
2018-12-20T09:22:50.859Z,3.00
2018-12-20T09:25:18.987Z,3.23
2018-12-20T09:27:47.068Z,2.77
2018-12-20T09:30:15.384Z,2.67
2018-12-20T09:32:43.462Z,2.63
2018-12-20T09:35:11.518Z,3.20
2018-12-20T09:37:39.638Z,2.80
2018-12-20T09:40:07.859Z,3.50
2018-12-20T09:42:36.905Z,3.17
2018-12-20T09:45:05.345Z,3.27
2018-12-20T09:47:38.720Z,3.33
2018-12-20T09:50:07.387Z,2.90
2018-12-20T09:52:35.479Z,2.87
2018-12-20T09:55:03.599Z,3.07
2018-12-20T09:57:33.326Z,2.80
2018-12-20T10:00:01.505Z,3.00
2018-12-20T10:02:29.713Z,3.00
2018-12-20T10:04:57.781Z,2.90
2018-12-20T10:07:25.969Z,2.73
2018-12-20T10:09:54.090Z,2.60
2018-12-20T10:12:22.191Z,2.73
2018-12-20T10:14:50.265Z,2.70
2018-12-20T10:17:20.053Z,2.97
2018-12-20T10:19:48.445Z,2.33
2018-12-20T10:22:16.491Z,2.20
2018-12-20T10:24:44.566Z,2.57
2018-12-20T10:27:12.589Z,2.40
2018-12-20T10:29:40.809Z,2.07
2018-12-20T10:32:08.940Z,1.50
2018-12-20T10:34:37.001Z,1.60
2018-12-20T10:37:05.123Z,1.60
2018-12-20T10:39:33.821Z,2.10
2018-12-20T10:42:02.058Z,1.67
2018-12-20T10:44:30.205Z,1.40
2018-12-20T10:47:02.526Z,1.80
2018-12-20T10:49:30.609Z,1.40
2018-12-20T10:51:58.722Z,1.50
2018-12-20T10:54:26.834Z,1.50
2018-12-20T10:56:54.898Z,1.30
2018-12-20T10:59:22.943Z,1.30
2018-12-20T11:01:55.166Z,1.23
2018-12-20T11:04:30.536Z,1.20
2018-12-20T11:07:04.038Z,1.20
2018-12-20T11:09:37.477Z,1.27
2018-12-20T11:12:08.505Z,1.27
2018-12-20T11:14:37.121Z,1.10
2018-12-20T11:17:05.233Z,1.27
2018-12-20T11:19:33.337Z,1.30
2018-12-20T11:22:01.471Z,1.10
2018-12-20T11:24:29.566Z,1.13
2018-12-20T11:26:57.725Z,0.93
2018-12-20T11:29:25.864Z,1.10
2018-12-20T11:31:54.011Z,1.10
2018-12-20T11:34:22.053Z,1.13
2018-12-20T11:36:50.098Z,1.10
2018-12-20T11:39:18.163Z,1.10
2018-12-20T11:41:46.295Z,1.00
2018-12-20T11:44:14.415Z,0.93
2018-12-20T11:46:42.509Z,1.00
2018-12-20T11:49:10.682Z,0.70
2018-12-20T11:51:38.783Z,1.20
2018-12-20T11:54:06.878Z,0.93
2018-12-20T11:56:34.957Z,0.80
2018-12-20T11:59:03.005Z,0.80
2018-12-20T12:01:32.227Z,1.10
2018-12-20T12:04:00.357Z,0.87
2018-12-20T12:06:28.415Z,0.70
2018-12-20T12:08:56.489Z,0.80
2018-12-20T12:11:24.563Z,0.70
2018-12-20T12:13:52.598Z,1.00
2018-12-20T12:16:20.732Z,0.50
2018-12-20T12:18:48.788Z,0.50
2018-12-20T12:21:16.926Z,0.70
2018-12-20T12:23:44.977Z,0.70
2018-12-20T12:26:13.075Z,0.40
2018-12-20T12:28:41.137Z,0.40
2018-12-20T12:31:09.197Z,0.40
2018-12-20T12:33:37.254Z,0.60
2018-12-20T12:36:05.404Z,0.50
2018-12-20T12:38:33.453Z,0.50
2018-12-20T12:41:01.513Z,0.43
2018-12-20T12:43:29.637Z,0.70
2018-12-20T12:45:57.689Z,0.50
2018-12-20T12:48:25.761Z,0.40
2018-12-20T12:50:53.825Z,0.40
2018-12-20T12:53:21.873Z,0.63
2018-12-20T12:55:50.010Z,0.60
2018-12-20T12:58:18.124Z,0.30
2018-12-20T13:00:46.275Z,0.50
2018-12-20T13:03:14.544Z,0.57
2018-12-20T13:05:42.589Z,0.70
2018-12-20T13:08:10.650Z,0.47
2018-12-20T13:10:38.772Z,0.70
2018-12-20T13:13:06.858Z,0.73
2018-12-20T13:15:34.898Z,1.10
2018-12-20T13:18:06.116Z,0.87
2018-12-20T13:20:33.177Z,0.93
2018-12-20T13:23:01.221Z,0.90
2018-12-20T13:25:29.350Z,0.70
2018-12-20T13:27:57.406Z,0.67
2018-12-20T13:30:25.469Z,0.73
2018-12-20T13:32:53.512Z,0.80
2018-12-20T13:35:21.637Z,0.87
2018-12-20T13:37:49.679Z,0.80
2018-12-20T13:40:17.913Z,0.80
2018-12-20T13:42:46.004Z,0.90
2018-12-20T13:45:14.061Z,0.80
2018-12-20T13:47:42.153Z,0.77
2018-12-20T13:50:10.310Z,0.60
2018-12-20T13:52:38.368Z,1.40
2018-12-20T13:55:06.580Z,0.60
2018-12-20T13:57:34.691Z,0.50
2018-12-20T14:00:02.860Z,0.87
2018-12-20T14:02:30.988Z,0.60
2018-12-20T14:04:59.111Z,0.70
2018-12-20T14:07:27.504Z,0.70
2018-12-20T14:09:55.692Z,1.50
2018-12-20T14:12:23.750Z,0.83
2018-12-20T14:14:51.842Z,0.97
2018-12-20T14:17:19.998Z,0.80
2018-12-20T14:19:48.052Z,0.90
2018-12-20T14:22:16.188Z,0.80
2018-12-20T14:24:44.325Z,2.20
2018-12-20T14:27:12.637Z,6.97
2018-12-20T14:29:40.733Z,26.00
2018-12-20T14:32:08.797Z,3.50
2018-12-20T14:34:36.850Z,16.37
2018-12-20T14:37:05.057Z,28.60
2018-12-20T14:39:33.102Z,26.80
2018-12-20T14:42:01.173Z,19.23
2018-12-20T14:44:29.226Z,1.20
2018-12-20T14:46:57.337Z,0.60
2018-12-20T14:49:25.485Z,0.70
2018-12-20T14:51:53.517Z,0.83
2018-12-20T14:54:21.634Z,0.80
2018-12-20T14:56:49.816Z,0.80
2018-12-20T14:59:17.879Z,0.80
2018-12-20T15:01:45.928Z,1.00
2018-12-20T15:04:13.988Z,0.93
2018-12-20T15:06:42.070Z,0.90
2018-12-20T15:09:10.229Z,0.80
2018-12-20T15:11:38.251Z,1.00
2018-12-20T15:14:06.301Z,0.90
2018-12-20T15:16:34.390Z,1.17
2018-12-20T15:19:02.446Z,1.00
2018-12-20T15:21:30.546Z,1.10
2018-12-20T15:23:58.638Z,1.10
2018-12-20T15:26:26.698Z,0.93
2018-12-20T15:28:54.736Z,1.13
2018-12-20T15:31:22.848Z,1.00
2018-12-20T15:33:50.973Z,0.80
2018-12-20T15:36:19.076Z,1.10
2018-12-20T15:38:47.111Z,1.30
2018-12-20T15:41:15.508Z,1.00
2018-12-20T15:43:43.619Z,1.70
2018-12-20T15:46:11.750Z,1.87
2018-12-20T15:48:39.796Z,1.40
2018-12-20T15:51:07.918Z,1.40
2018-12-20T15:53:36.012Z,1.70
2018-12-20T15:56:04.149Z,2.43
2018-12-20T15:58:32.191Z,1.20
2018-12-20T16:01:00.261Z,1.70
2018-12-20T16:03:28.315Z,2.00
2018-12-20T16:05:56.347Z,1.30
2018-12-20T16:10:58.741Z,1.53
2018-12-20T16:13:26.768Z,1.37
2018-12-20T16:15:54.926Z,1.80
2018-12-20T16:18:24.089Z,1.80
2018-12-20T16:20:52.117Z,2.17
2018-12-20T16:23:20.159Z,2.07
2018-12-20T16:25:48.344Z,1.67
2018-12-20T16:28:16.438Z,1.83
2018-12-20T16:30:44.541Z,2.73
2018-12-20T16:33:12.634Z,2.00
2018-12-20T16:35:40.717Z,1.80
2018-12-20T16:38:08.748Z,1.83
2018-12-20T16:40:36.808Z,2.17
2018-12-20T16:43:04.931Z,1.90
2018-12-20T16:45:32.970Z,1.50
2018-12-20T16:48:01.101Z,1.63
2018-12-20T16:50:29.250Z,1.60
2018-12-20T16:52:57.282Z,1.60
2018-12-20T16:55:25.371Z,1.60
2018-12-20T16:57:53.470Z,2.00
2018-12-20T17:00:21.557Z,1.43
2018-12-20T17:02:49.700Z,1.40
2018-12-20T17:05:17.798Z,1.33
2018-12-20T17:07:45.829Z,1.57
2018-12-20T17:10:13.909Z,1.10
2018-12-20T17:12:42.055Z,1.00
2018-12-20T17:15:10.145Z,1.27
2018-12-20T17:17:38.180Z,0.90
2018-12-20T17:20:07.508Z,0.77
2018-12-20T17:22:35.666Z,1.10
2018-12-20T17:25:03.806Z,0.80
2018-12-20T17:27:31.834Z,0.80
2018-12-20T17:29:59.887Z,0.83
2018-12-20T17:32:27.980Z,0.70
2018-12-20T17:34:56.026Z,1.50
2018-12-20T17:37:24.288Z,0.93
2018-12-20T17:39:52.316Z,1.03
2018-12-20T17:42:20.336Z,1.00
2018-12-20T17:44:51.476Z,1.33
2018-12-20T17:47:19.577Z,1.20
2018-12-20T17:49:47.733Z,1.40
2018-12-20T17:52:15.907Z,1.10
2018-12-20T17:54:43.988Z,1.00
2018-12-20T17:57:12.116Z,1.00
2018-12-20T17:59:40.143Z,1.40
2018-12-20T18:02:08.229Z,1.50
2018-12-20T18:04:36.257Z,1.27
2018-12-20T18:07:04.431Z,1.40
2018-12-20T18:09:32.531Z,1.73
2018-12-20T18:12:00.566Z,1.60
2018-12-20T18:14:28.850Z,1.50
2018-12-20T18:16:56.919Z,1.90
2018-12-20T18:19:25.017Z,1.43
2018-12-20T18:21:53.051Z,1.70
2018-12-20T18:24:21.106Z,2.97
2018-12-20T18:26:49.133Z,1.93
2018-12-20T18:29:17.253Z,3.00
2018-12-20T18:31:45.338Z,1.90
2018-12-20T18:34:13.378Z,1.53
2018-12-20T18:36:41.404Z,1.90
2018-12-20T18:39:09.539Z,1.93
2018-12-20T18:41:37.699Z,1.83
2018-12-20T18:44:05.777Z,2.10
2018-12-20T18:46:33.801Z,1.60
2018-12-20T18:49:01.844Z,1.50
2018-12-20T18:51:29.982Z,1.70
2018-12-20T18:53:58.015Z,1.10
2018-12-20T18:56:26.127Z,1.50
2018-12-20T18:58:54.141Z,1.20
2018-12-20T19:01:22.526Z,1.10
2018-12-20T19:03:50.661Z,1.23
2018-12-20T19:06:18.813Z,1.30
2018-12-20T19:08:46.822Z,1.10
2018-12-20T19:11:14.853Z,1.27
2018-12-20T19:13:42.876Z,1.07
2018-12-20T19:16:10.896Z,0.87
2018-12-20T19:18:38.909Z,1.23
2018-12-20T19:21:07.119Z,1.87
2018-12-20T19:23:35.230Z,1.50
2018-12-20T19:26:03.617Z,1.27
2018-12-20T19:28:31.663Z,1.10
2018-12-20T19:30:59.777Z,1.40
2018-12-20T19:33:27.813Z,1.20
2018-12-20T19:35:55.834Z,1.10
2018-12-20T19:38:23.849Z,5.03
2018-12-20T19:40:52.957Z,1.57
2018-12-20T19:43:21.093Z,1.67
2018-12-20T19:45:49.184Z,1.00
2018-12-20T19:48:17.227Z,1.20
2018-12-20T19:50:45.265Z,0.90
2018-12-20T19:53:13.312Z,0.70
2018-12-20T19:55:43.127Z,0.93
2018-12-20T19:58:11.301Z,1.30
2018-12-20T20:00:39.342Z,0.90
2018-12-20T20:03:07.418Z,0.70
2018-12-20T20:05:35.551Z,1.00
2018-12-20T20:08:03.639Z,0.80
2018-12-20T20:10:31.670Z,1.00
2018-12-20T20:12:59.822Z,0.80
2018-12-20T20:15:27.910Z,0.77
2018-12-20T20:17:56.053Z,0.60
2018-12-20T20:20:24.115Z,1.07
2018-12-20T20:22:52.140Z,0.83
2018-12-20T20:25:20.198Z,1.33
2018-12-20T20:27:48.219Z,0.90
2018-12-20T20:30:16.325Z,1.20
2018-12-20T20:32:44.356Z,1.10
2018-12-20T20:35:12.481Z,1.40
2018-12-20T20:37:40.580Z,1.17
2018-12-20T20:40:10.318Z,1.50
2018-12-20T20:42:38.398Z,1.50
2018-12-20T20:45:06.948Z,1.60
2018-12-20T20:47:34.971Z,1.90
2018-12-20T20:50:03.200Z,1.37
2018-12-20T20:52:31.223Z,1.33
2018-12-20T20:54:59.236Z,1.20
2018-12-20T20:57:27.377Z,1.23
2018-12-20T20:59:55.408Z,1.17
2018-12-20T21:02:23.524Z,3.57
2018-12-20T21:04:51.541Z,2.20
2018-12-20T21:07:19.680Z,1.83
2018-12-20T21:09:47.786Z,1.60
2018-12-20T21:12:22.801Z,1.57
2018-12-20T21:14:52.420Z,1.60
2018-12-20T21:17:15.934Z,1.60
2018-12-20T21:19:43.950Z,1.60
2018-12-20T21:22:11.994Z,1.30
2018-12-20T21:24:40.131Z,1.47
2018-12-20T21:27:08.157Z,1.33
2018-12-20T21:29:36.185Z,1.20
2018-12-20T21:32:04.922Z,1.20
2018-12-20T21:34:32.957Z,1.00
2018-12-20T21:37:00.985Z,1.33
2018-12-20T21:39:29.056Z,1.30
2018-12-20T21:41:57.066Z,0.97
2018-12-20T21:44:25.105Z,1.17
2018-12-20T21:46:53.120Z,1.00
2018-12-20T21:49:21.215Z,1.40
2018-12-20T21:51:49.261Z,0.87
2018-12-20T21:54:17.551Z,0.90
2018-12-20T21:56:45.678Z,1.10
2018-12-20T21:59:13.705Z,0.90
2018-12-20T22:01:41.729Z,0.97
2018-12-20T22:04:09.762Z,0.80
2018-12-20T22:06:37.804Z,1.03
2018-12-20T22:09:07.010Z,0.90
2018-12-20T22:11:35.102Z,0.90
2018-12-20T22:14:03.189Z,0.80
2018-12-20T22:16:31.288Z,0.97
2018-12-20T22:18:59.452Z,0.80
2018-12-20T22:21:27.494Z,0.70
2018-12-20T22:23:55.533Z,0.90
2018-12-20T22:26:23.632Z,0.83
2018-12-20T22:28:51.662Z,1.00
2018-12-20T22:31:20.381Z,0.90
2018-12-20T22:33:48.389Z,1.00
2018-12-20T22:36:16.438Z,1.00
2018-12-20T22:38:44.480Z,1.00
2018-12-20T22:41:12.614Z,0.97
2018-12-20T22:43:40.686Z,0.90
2018-12-20T22:46:08.710Z,0.93
2018-12-20T22:48:36.819Z,0.87
2018-12-20T22:51:04.966Z,0.90
2018-12-20T22:53:33.020Z,0.80
2018-12-20T22:56:01.169Z,0.80
2018-12-20T22:58:29.293Z,0.80
2018-12-20T23:00:59.351Z,0.90
2018-12-20T23:03:27.418Z,0.97
2018-12-20T23:05:55.468Z,1.17
2018-12-20T23:08:23.626Z,0.80
2018-12-20T23:10:51.705Z,0.97
2018-12-20T23:13:19.816Z,1.00
2018-12-20T23:15:47.913Z,1.37
2018-12-20T23:18:16.265Z,1.20
2018-12-20T23:20:51.805Z,1.80
2018-12-20T23:23:19.828Z,1.87
2018-12-20T23:25:47.854Z,1.90
2018-12-20T23:28:15.861Z,1.97
2018-12-20T23:30:43.869Z,2.23
2018-12-20T23:33:11.971Z,2.10
2018-12-20T23:35:39.993Z,2.10
2018-12-20T23:40:49.594Z,2.70
2018-12-20T23:43:17.664Z,3.17
2018-12-20T23:45:45.774Z,2.83
2018-12-20T23:48:13.872Z,2.40
2018-12-20T23:50:41.901Z,2.90
2018-12-20T23:53:09.920Z,2.10
2018-12-20T23:55:38.057Z,2.50
2018-12-20T23:58:06.082Z,2.87
